Time,TemperatureF,DewpointF,PressureIn,WindDirection,WindDirectionDegrees,WindSpeedMPH,WindSpeedGustMPH,Humidity,HourlyPrecipIn,Conditions,Clouds,dailyrainin,SoftwareType,DateUTC
2013-06-05 00:02:00,63.3,61.2,29.93,West,277,0.0,0.0,93,0.00,,,0.00,Wunderground v.1.15,2013-06-05 05:02:00,
2013-06-05 00:07:00,63.2,61.1,29.93,West,277,0.0,0.0,93,0.00,,,0.00,Wunderground v.1.15,2013-06-05 05:07:00,
2013-06-05 00:12:00,63.1,61.0,29.93,West,277,0.0,0.0,93,0.00,,,0.00,Wunderground v.1.15,2013-06-05 05:12:00,
2013-06-05 00:17:00,62.9,60.8,29.93,West,277,0.0,0.0,93,0.00,,,0.00,Wunderground v.1.15,2013-06-05 05:17:00,
2013-06-05 00:22:00,62.7,60.6,29.93,West,277,0.0,0.0,93,0.00,,,0.00,Wunderground v.1.15,2013-06-05 05:22:00,
2013-06-05 00:27:00,62.5,60.4,29.93,West,277,0.0,0.0,93,0.00,,,0.00,Wunderground v.1.15,2013-06-05 05:27:00,
2013-06-05 00:32:00,62.6,60.5,29.93,West,277,0.0,0.0,93,0.00,,,0.00,Wunderground v.1.15,2013-06-05 05:32:00,
2013-06-05 00:37:00,62.4,60.7,29.93,West,277,0.0,0.0,94,0.00,,,0.00,Wunderground v.1.15,2013-06-05 05:37:00,
2013-06-05 00:42:00,62.3,60.6,29.93,West,277,0.0,0.0,94,0.00,,,0.00,Wunderground v.1.15,2013-06-05 05:42:00,
2013-06-05 00:47:00,62.2,60.5,29.93,West,277,0.0,0.0,94,0.00,,,0.00,Wunderground v.1.15,2013-06-05 05:47:00,
2013-06-05 00:52:00,62.1,60.4,29.93,West,277,0.0,0.0,94,0.00,,,0.00,Wunderground v.1.15,2013-06-05 05:52:00,
2013-06-05 00:57:00,61.9,60.2,29.93,West,277,0.0,0.0,94,0.00,,,0.00,Wunderground v.1.15,2013-06-05 05:57:00,
2013-06-05 01:02:00,61.7,60.0,29.93,West,277,0.0,0.0,94,0.00,,,0.00,Wunderground v.1.15,2013-06-05 06:02:00,
2013-06-05 01:08:00,61.5,59.8,29.93,West,277,0.0,0.0,94,0.00,,,0.00,Wunderground v.1.15,2013-06-05 06:08:00,
2013-06-05 01:13:00,61.3,59.6,29.93,West,277,0.0,0.0,94,0.00,,,0.00,Wunderground v.1.15,2013-06-05 06:13:00,
2013-06-05 01:18:00,61.3,59.9,29.93,West,276,0.0,0.0,95,0.00,,,0.00,Wunderground v.1.15,2013-06-05 06:18:00,
2013-06-05 01:23:00,61.3,59.6,29.93,West,277,0.0,0.0,94,0.00,,,0.00,Wunderground v.1.15,2013-06-05 06:23:00,
2013-06-05 01:28:00,61.1,59.4,29.93,West,277,0.0,0.0,94,0.00,,,0.00,Wunderground v.1.15,2013-06-05 06:28:00,
2013-06-05 01:34:00,61.1,59.7,29.93,West,276,0.0,0.0,95,0.00,,,0.00,Wunderground v.1.15,2013-06-05 06:34:00,
2013-06-05 01:39:00,61.0,59.6,29.92,West,277,0.0,0.0,95,0.00,,,0.00,Wunderground v.1.15,2013-06-05 06:39:00,
2013-06-05 01:44:00,60.9,59.5,29.92,West,277,0.0,0.0,95,0.00,,,0.00,Wunderground v.1.15,2013-06-05 06:44:00,
2013-06-05 01:49:00,60.8,59.4,29.92,West,277,0.0,0.0,95,0.00,,,0.00,Wunderground v.1.15,2013-06-05 06:49:00,
2013-06-05 01:54:00,60.8,59.4,29.92,West,276,0.0,0.0,95,0.00,,,0.00,Wunderground v.1.15,2013-06-05 06:54:00,
2013-06-05 01:59:00,60.6,59.2,29.92,West,277,0.0,0.0,95,0.00,,,0.00,Wunderground v.1.15,2013-06-05 06:59:00,
2013-06-05 02:04:00,60.4,59.0,29.92,West,277,0.0,0.0,95,0.00,,,0.00,Wunderground v.1.15,2013-06-05 07:04:00,
2013-06-05 02:09:00,60.4,59.0,29.92,West,277,0.0,0.0,95,0.00,,,0.00,Wunderground v.1.15,2013-06-05 07:09:00,
2013-06-05 02:14:00,60.3,58.9,29.92,West,277,0.0,0.0,95,0.00,,,0.00,Wunderground v.1.15,2013-06-05 07:14:00,
2013-06-05 02:19:00,60.2,58.8,29.92,West,277,0.0,0.0,95,0.00,,,0.00,Wunderground v.1.15,2013-06-05 07:19:00,
2013-06-05 02:24:00,60.2,58.8,29.92,West,277,0.0,0.0,95,0.00,,,0.00,Wunderground v.1.15,2013-06-05 07:24:00,
2013-06-05 02:29:00,60.2,59.1,29.92,West,277,0.0,0.0,96,0.00,,,0.00,Wunderground v.1.15,2013-06-05 07:29:00,
2013-06-05 02:34:00,60.1,59.0,29.92,West,277,0.0,0.0,96,0.00,,,0.00,Wunderground v.1.15,2013-06-05 07:34:00,
2013-06-05 02:39:00,60.2,59.1,29.92,West,277,0.0,0.0,96,0.00,,,0.00,Wunderground v.1.15,2013-06-05 07:39:00,
2013-06-05 02:44:00,60.3,59.2,29.92,West,277,0.0,0.0,96,0.00,,,0.00,Wunderground v.1.15,2013-06-05 07:44:00,
2013-06-05 02:49:00,60.3,59.2,29.92,West,277,0.0,0.0,96,0.00,,,0.00,Wunderground v.1.15,2013-06-05 07:49:00,
2013-06-05 02:54:00,60.3,59.2,29.92,West,276,0.0,0.0,96,0.00,,,0.00,Wunderground v.1.15,2013-06-05 07:54:00,
2013-06-05 02:59:00,60.3,59.2,29.91,West,276,0.0,0.0,96,0.00,,,0.00,Wunderground v.1.15,2013-06-05 07:59:00,
2013-06-05 03:04:00,60.2,59.1,29.91,West,277,0.0,0.0,96,0.00,,,0.00,Wunderground v.1.15,2013-06-05 08:04:00,
2013-06-05 03:09:00,60.1,59.0,29.91,West,276,0.0,0.0,96,0.00,,,0.00,Wunderground v.1.15,2013-06-05 08:09:00,
2013-06-05 03:14:00,60.1,59.0,29.90,West,277,0.0,0.0,96,0.00,,,0.00,Wunderground v.1.15,2013-06-05 08:14:00,
2013-06-05 03:19:00,60.0,58.9,29.90,West,277,0.0,0.0,96,0.00,,,0.00,Wunderground v.1.15,2013-06-05 08:19:00,
2013-06-05 03:24:00,60.0,58.9,29.90,West,276,0.0,0.0,96,0.00,,,0.00,Wunderground v.1.15,2013-06-05 08:24:00,
2013-06-05 03:29:00,60.0,58.9,29.90,West,277,0.0,0.0,96,0.00,,,0.00,Wunderground v.1.15,2013-06-05 08:29:00,
2013-06-05 03:34:00,60.0,58.9,29.90,West,277,0.0,0.0,96,0.00,,,0.00,Wunderground v.1.15,2013-06-05 08:34:00,
2013-06-05 03:39:00,60.0,58.9,29.90,West,277,0.0,0.0,96,0.00,,,0.00,Wunderground v.1.15,2013-06-05 08:39:00,
2013-06-05 03:44:00,59.9,58.8,29.90,West,277,0.0,0.0,96,0.00,,,0.00,Wunderground v.1.15,2013-06-05 08:44:00,
2013-06-05 03:49:00,59.9,58.8,29.90,West,277,0.0,0.0,96,0.00,,,0.00,Wunderground v.1.15,2013-06-05 08:49:00,
2013-06-05 03:54:00,59.9,58.8,29.90,West,277,0.0,0.0,96,0.00,,,0.00,Wunderground v.1.15,2013-06-05 08:54:00,
2013-06-05 03:59:00,59.8,58.7,29.90,West,276,0.0,0.0,96,0.00,,,0.00,Wunderground v.1.15,2013-06-05 08:59:00,
2013-06-05 04:04:00,59.7,58.6,29.90,West,276,0.0,0.0,96,0.00,,,0.00,Wunderground v.1.15,2013-06-05 09:04:00,
2013-06-05 04:09:00,59.7,58.6,29.89,West,277,0.0,0.0,96,0.00,,,0.00,Wunderground v.1.15,2013-06-05 09:09:00,
2013-06-05 04:14:00,59.6,58.5,29.90,West,277,0.0,0.0,96,0.00,,,0.00,Wunderground v.1.15,2013-06-05 09:14:00,
2013-06-05 04:19:00,59.6,58.7,29.90,West,277,0.0,0.0,97,0.00,,,0.00,Wunderground v.1.15,2013-06-05 09:19:00,
2013-06-05 04:24:00,59.6,58.7,29.90,West,276,0.0,0.0,97,0.00,,,0.00,Wunderground v.1.15,2013-06-05 09:24:00,
2013-06-05 04:29:00,59.6,58.7,29.90,West,277,0.0,0.0,97,0.00,,,0.00,Wunderground v.1.15,2013-06-05 09:29:00,
2013-06-05 04:34:00,59.7,58.8,29.89,West,277,0.0,0.0,97,0.00,,,0.00,Wunderground v.1.15,2013-06-05 09:34:00,
2013-06-05 04:39:00,59.8,58.9,29.90,West,277,0.0,0.0,97,0.00,,,0.00,Wunderground v.1.15,2013-06-05 09:39:00,
2013-06-05 04:44:00,59.8,58.9,29.91,West,276,0.0,0.0,97,0.00,,,0.00,Wunderground v.1.15,2013-06-05 09:44:00,
2013-06-05 04:49:00,59.8,58.9,29.91,West,277,0.0,0.0,97,0.00,,,0.00,Wunderground v.1.15,2013-06-05 09:49:00,
2013-06-05 04:54:00,59.9,59.0,29.91,West,277,0.0,0.0,97,0.00,,,0.00,Wunderground v.1.15,2013-06-05 09:54:00,
2013-06-05 04:59:00,60.1,59.2,29.91,West,277,0.0,0.0,97,0.00,,,0.00,Wunderground v.1.15,2013-06-05 09:59:00,
2013-06-05 05:04:00,60.3,59.4,29.90,West,276,0.0,0.0,97,0.00,,,0.00,Wunderground v.1.15,2013-06-05 10:04:00,
2013-06-05 05:09:00,60.6,59.7,29.90,SSE,155,0.0,1.0,97,0.00,,,0.00,Wunderground v.1.15,2013-06-05 10:09:00,
2013-06-05 05:14:00,61.0,60.1,29.90,SSE,151,0.0,2.0,97,0.00,,,0.00,Wunderground v.1.15,2013-06-05 10:14:00,
2013-06-05 05:19:00,61.1,60.2,29.90,SE,143,0.0,2.0,97,0.00,,,0.00,Wunderground v.1.15,2013-06-05 10:19:00,
2013-06-05 05:24:00,61.1,60.2,29.89,SE,142,1.0,1.0,97,0.00,,,0.00,Wunderground v.1.15,2013-06-05 10:24:00,
2013-06-05 05:29:00,61.1,60.2,29.89,SE,141,0.0,1.0,97,0.00,,,0.00,Wunderground v.1.15,2013-06-05 10:29:00,
2013-06-05 05:34:00,61.1,60.2,29.89,SE,141,0.0,1.0,97,0.00,,,0.00,Wunderground v.1.15,2013-06-05 10:34:00,
2013-06-05 05:39:00,61.1,60.2,29.89,SE,141,0.0,1.0,97,0.00,,,0.00,Wunderground v.1.15,2013-06-05 10:39:00,
2013-06-05 05:44:00,61.0,60.1,29.89,SE,143,0.0,0.0,97,0.00,,,0.00,Wunderground v.1.15,2013-06-05 10:44:00,
2013-06-05 05:49:00,60.8,59.9,29.89,SSE,159,0.0,0.0,97,0.00,,,0.00,Wunderground v.1.15,2013-06-05 10:49:00,
2013-06-05 05:54:00,60.5,59.6,29.89,SSE,159,0.0,0.0,97,0.00,,,0.00,Wunderground v.1.15,2013-06-05 10:54:00,
2013-06-05 06:00:00,60.3,59.4,29.89,SSE,159,0.0,0.0,97,0.00,,,0.00,Wunderground v.1.15,2013-06-05 11:00:00,
2013-06-05 06:04:00,60.3,59.4,29.89,SSE,159,0.0,0.0,97,0.00,,,0.00,Wunderground v.1.15,2013-06-05 11:04:00,
2013-06-05 06:10:00,60.4,59.5,29.89,SSE,159,0.0,0.0,97,0.00,,,0.00,Wunderground v.1.15,2013-06-05 11:10:00,
2013-06-05 06:15:00,60.3,59.4,29.89,SSE,160,0.0,0.0,97,0.00,,,0.00,Wunderground v.1.15,2013-06-05 11:15:00,
2013-06-05 06:20:00,60.1,59.2,29.89,SSE,160,0.0,0.0,97,0.00,,,0.00,Wunderground v.1.15,2013-06-05 11:20:00,
2013-06-05 06:25:00,60.0,59.1,29.90,SSE,159,0.0,0.0,97,0.00,,,0.00,Wunderground v.1.15,2013-06-05 11:25:00,
2013-06-05 06:30:00,60.0,59.1,29.90,SSE,159,0.0,0.0,97,0.00,,,0.00,Wunderground v.1.15,2013-06-05 11:30:00,
2013-06-05 06:35:00,60.1,59.2,29.90,SSE,160,0.0,0.0,97,0.00,,,0.00,Wunderground v.1.15,2013-06-05 11:35:00,
2013-06-05 06:40:00,60.2,59.3,29.90,SSE,159,0.0,0.0,97,0.00,,,0.00,Wunderground v.1.15,2013-06-05 11:40:00,
2013-06-05 06:45:00,60.3,59.4,29.90,SSE,160,0.0,0.0,97,0.00,,,0.00,Wunderground v.1.15,2013-06-05 11:45:00,
2013-06-05 06:50:00,60.4,59.5,29.91,SSE,159,0.0,0.0,97,0.00,,,0.00,Wunderground v.1.15,2013-06-05 11:50:00,
2013-06-05 06:55:00,60.5,59.6,29.91,SSW,210,0.0,0.0,97,0.00,,,0.00,Wunderground v.1.15,2013-06-05 11:55:00,
2013-06-05 07:00:00,60.6,59.7,29.91,SSW,205,0.0,0.0,97,0.00,,,0.00,Wunderground v.1.15,2013-06-05 12:00:00,
2013-06-05 07:05:00,60.6,59.7,29.90,SSE,153,0.0,0.0,97,0.00,,,0.00,Wunderground v.1.15,2013-06-05 12:05:00,
2013-06-05 07:10:00,60.6,59.7,29.90,SSE,153,0.0,0.0,97,0.00,,,0.00,Wunderground v.1.15,2013-06-05 12:10:00,
2013-06-05 07:15:00,60.5,59.6,29.90,SSE,151,0.0,0.0,97,0.00,,,0.00,Wunderground v.1.15,2013-06-05 12:15:00,
2013-06-05 07:20:00,60.4,59.5,29.90,SSE,152,0.0,0.0,97,0.00,,,0.00,Wunderground v.1.15,2013-06-05 12:20:00,
2013-06-05 07:25:00,60.5,59.6,29.92,SSE,153,0.0,0.0,97,0.00,,,0.00,Wunderground v.1.15,2013-06-05 12:25:00,
2013-06-05 07:30:00,60.7,59.8,29.92,South,181,0.0,0.0,97,0.00,,,0.00,Wunderground v.1.15,2013-06-05 12:30:00,
2013-06-05 07:35:00,60.9,60.0,29.91,SSE,156,0.0,1.0,97,0.00,,,0.00,Wunderground v.1.15,2013-06-05 12:35:00,
2013-06-05 07:40:00,61.1,60.2,29.91,SSE,156,0.0,1.0,97,0.00,,,0.00,Wunderground v.1.15,2013-06-05 12:40:00,
2013-06-05 07:45:00,61.2,60.3,29.90,SSE,150,1.0,1.0,97,0.00,,,0.00,Wunderground v.1.15,2013-06-05 12:45:00,
2013-06-05 07:50:00,61.3,60.4,29.91,SSE,150,0.0,1.0,97,0.00,,,0.00,Wunderground v.1.15,2013-06-05 12:50:00,
2013-06-05 07:55:00,61.4,60.5,29.91,SSE,151,0.0,0.0,97,0.00,,,0.00,Wunderground v.1.15,2013-06-05 12:55:00,
2013-06-05 08:00:00,61.5,60.6,29.91,SSE,150,0.0,0.0,97,0.00,,,0.00,Wunderground v.1.15,2013-06-05 13:00:00,
2013-06-05 08:05:00,61.6,60.7,29.92,SSE,151,0.0,0.0,97,0.00,,,0.00,Wunderground v.1.15,2013-06-05 13:05:00,
2013-06-05 08:10:00,61.7,60.8,29.93,SW,235,0.0,0.0,97,0.00,,,0.00,Wunderground v.1.15,2013-06-05 13:10:00,
2013-06-05 08:15:00,61.8,60.9,29.94,SW,235,0.0,0.0,97,0.00,,,0.00,Wunderground v.1.15,2013-06-05 13:15:00,
2013-06-05 08:20:00,61.9,61.0,29.93,SSE,155,0.0,0.0,97,0.00,,,0.00,Wunderground v.1.15,2013-06-05 13:20:00,
2013-06-05 08:25:00,62.0,61.1,29.94,SSE,155,0.0,0.0,97,0.00,,,0.00,Wunderground v.1.15,2013-06-05 13:25:00,
2013-06-05 08:30:00,62.0,60.8,29.98,NW,312,5.0,8.0,96,0.00,,,0.00,Wunderground v.1.15,2013-06-05 13:30:00,
2013-06-05 08:35:00,62.5,61.3,29.97,West,280,2.0,8.0,96,0.00,,,0.00,Wunderground v.1.15,2013-06-05 13:35:00,
2013-06-05 08:40:00,63.0,61.5,29.97,West,274,0.0,8.0,95,0.00,,,0.00,Wunderground v.1.15,2013-06-05 13:40:00,
2013-06-05 08:45:00,63.2,61.4,29.98,WSW,243,1.0,3.0,94,0.00,,,0.00,Wunderground v.1.15,2013-06-05 13:45:00,
2013-06-05 08:50:00,63.3,61.5,29.97,West,274,0.0,3.0,94,0.00,,,0.00,Wunderground v.1.15,2013-06-05 13:50:00,
2013-06-05 08:55:00,63.1,61.3,29.97,WNW,294,3.0,3.0,94,0.00,,,0.01,Wunderground v.1.15,2013-06-05 13:55:00,
2013-06-05 09:00:00,62.9,61.1,29.97,West,274,1.0,5.0,94,0.00,,,0.01,Wunderground v.1.15,2013-06-05 14:00:00,
2013-06-05 09:05:00,63.0,61.5,29.97,SW,236,1.0,5.0,95,0.08,,,0.02,Wunderground v.1.15,2013-06-05 14:05:00,
2013-06-05 09:10:00,63.4,61.9,29.97,SW,225,1.0,5.0,95,0.10,,,0.03,Wunderground v.1.15,2013-06-05 14:10:00,
2013-06-05 09:15:00,63.5,61.7,29.97,WSW,241,1.0,2.0,94,0.08,,,0.03,Wunderground v.1.15,2013-06-05 14:15:00,
2013-06-05 09:20:00,63.6,61.8,29.97,SW,236,0.0,2.0,94,0.05,,,0.03,Wunderground v.1.15,2013-06-05 14:20:00,
2013-06-05 09:25:00,63.7,62.2,29.97,SW,236,0.0,1.0,95,0.04,,,0.04,Wunderground v.1.15,2013-06-05 14:25:00,
2013-06-05 09:30:00,63.9,62.4,29.96,South,184,0.0,1.0,95,0.04,,,0.04,Wunderground v.1.15,2013-06-05 14:30:00,
2013-06-05 09:35:00,64.1,62.6,29.98,WSW,243,1.0,3.0,95,0.06,,,0.05,Wunderground v.1.15,2013-06-05 14:35:00,
2013-06-05 09:40:00,64.3,62.8,29.98,WSW,258,0.0,3.0,95,0.06,,,0.05,Wunderground v.1.15,2013-06-05 14:40:00,
2013-06-05 09:45:00,64.4,62.9,29.98,WSW,255,0.0,3.0,95,0.06,,,0.05,Wunderground v.1.15,2013-06-05 14:45:00,
2013-06-05 09:50:00,64.6,63.1,29.97,East,83,2.0,3.0,95,0.05,,,0.06,Wunderground v.1.15,2013-06-05 14:50:00,
2013-06-05 09:55:00,64.9,63.4,29.96,WSW,240,1.0,2.0,95,0.05,,,0.06,Wunderground v.1.15,2013-06-05 14:55:00,
2013-06-05 10:00:00,65.1,63.6,29.95,SW,231,1.0,2.0,95,0.05,,,0.06,Wunderground v.1.15,2013-06-05 15:00:00,
2013-06-05 10:05:00,65.2,63.7,29.94,SW,225,0.0,2.0,95,0.05,,,0.07,Wunderground v.1.15,2013-06-05 15:05:00,
2013-06-05 10:10:00,65.3,63.8,29.93,SW,222,0.0,2.0,95,0.08,,,0.08,Wunderground v.1.15,2013-06-05 15:10:00,
2013-06-05 10:15:00,65.3,63.8,29.92,ESE,117,3.0,3.0,95,0.08,,,0.08,Wunderground v.1.15,2013-06-05 15:15:00,
2013-06-05 10:20:00,65.4,63.9,29.92,WSW,243,2.0,4.0,95,0.05,,,0.08,Wunderground v.1.15,2013-06-05 15:20:00,
2013-06-05 10:25:00,65.6,64.1,29.93,West,276,2.0,2.0,95,0.04,,,0.08,Wunderground v.1.15,2013-06-05 15:25:00,
2013-06-05 10:30:00,65.6,64.1,29.93,SW,227,1.0,2.0,95,0.00,,,0.08,Wunderground v.1.15,2013-06-05 15:30:00,
2013-06-05 10:35:00,65.7,64.2,29.93,West,259,1.0,2.0,95,0.00,,,0.08,Wunderground v.1.15,2013-06-05 15:35:00,
2013-06-05 10:40:00,65.9,64.4,29.92,SW,224,0.0,3.0,95,0.00,,,0.08,Wunderground v.1.15,2013-06-05 15:40:00,
2013-06-05 10:45:00,66.0,64.5,29.92,SE,146,0.0,2.0,95,0.00,,,0.09,Wunderground v.1.15,2013-06-05 15:45:00,
2013-06-05 10:50:00,66.3,64.8,29.92,SSE,167,0.0,2.0,95,0.13,,,0.10,Wunderground v.1.15,2013-06-05 15:50:00,
2013-06-05 10:55:00,66.6,65.1,29.91,West,278,1.0,1.0,95,0.13,,,0.11,Wunderground v.1.15,2013-06-05 15:55:00,
2013-06-05 11:00:00,66.6,65.1,29.90,West,274,0.0,1.0,95,0.13,,,0.12,Wunderground v.1.15,2013-06-05 16:00:00,
2013-06-05 11:05:00,66.7,65.2,29.90,West,265,1.0,2.0,95,0.06,,,0.12,Wunderground v.1.15,2013-06-05 16:05:00,
2013-06-05 11:10:00,67.1,65.6,29.90,WSW,252,1.0,2.0,95,0.04,,,0.12,Wunderground v.1.15,2013-06-05 16:10:00,
2013-06-05 11:15:00,67.5,65.7,29.89,SE,124,1.0,2.0,94,0.00,,,0.12,Wunderground v.1.15,2013-06-05 16:15:00,
2013-06-05 11:20:00,67.9,66.1,29.88,West,263,2.0,2.0,94,0.00,,,0.12,Wunderground v.1.15,2013-06-05 16:20:00,
2013-06-05 11:25:00,68.0,66.2,29.88,WNW,294,1.0,2.0,94,0.00,,,0.12,Wunderground v.1.15,2013-06-05 16:25:00,
2013-06-05 11:30:00,68.1,66.0,29.87,ESE,111,3.0,3.0,93,0.00,,,0.12,Wunderground v.1.15,2013-06-05 16:30:00,
2013-06-05 11:35:00,68.3,66.2,29.87,NW,311,0.0,3.0,93,0.00,,,0.12,Wunderground v.1.15,2013-06-05 16:35:00,
2013-06-05 11:40:00,68.4,66.0,29.86,SSE,156,0.0,3.0,92,0.00,,,0.12,Wunderground v.1.15,2013-06-05 16:40:00,
2013-06-05 11:45:00,68.8,66.4,29.85,SSE,156,0.0,1.0,92,0.00,,,0.12,Wunderground v.1.15,2013-06-05 16:45:00,
2013-06-05 11:50:00,69.3,66.2,29.85,South,176,0.0,1.0,90,0.00,,,0.12,Wunderground v.1.15,2013-06-05 16:50:00,
2013-06-05 11:55:00,69.8,66.7,29.84,SE,129,1.0,1.0,90,0.00,,,0.12,Wunderground v.1.15,2013-06-05 16:55:00,
2013-06-05 12:00:00,70.0,66.6,29.83,East,98,1.0,3.0,89,0.00,,,0.12,Wunderground v.1.15,2013-06-05 17:00:00,
2013-06-05 12:05:00,69.7,66.3,29.83,NNE,18,1.0,2.0,89,0.00,,,0.12,Wunderground v.1.15,2013-06-05 17:05:00,
2013-06-05 12:10:00,69.8,66.7,29.83,NE,48,0.0,2.0,90,0.00,,,0.12,Wunderground v.1.15,2013-06-05 17:10:00,
2013-06-05 12:15:00,70.3,66.9,29.84,NW,308,0.0,1.0,89,0.00,,,0.12,Wunderground v.1.15,2013-06-05 17:15:00,
2013-06-05 12:20:00,70.8,67.1,29.84,West,271,0.0,3.0,88,0.00,,,0.12,Wunderground v.1.15,2013-06-05 17:20:00,
2013-06-05 12:25:00,71.4,67.7,29.85,West,264,2.0,2.0,88,0.00,,,0.12,Wunderground v.1.15,2013-06-05 17:25:00,
2013-06-05 12:30:00,72.2,68.8,29.85,North,354,1.0,3.0,89,0.00,,,0.12,Wunderground v.1.15,2013-06-05 17:30:00,
2013-06-05 12:35:00,72.9,68.1,29.86,NW,307,1.0,2.0,85,0.00,,,0.12,Wunderground v.1.15,2013-06-05 17:35:00,
2013-06-05 12:40:00,73.5,68.0,29.86,WNW,290,2.0,3.0,83,0.00,,,0.12,Wunderground v.1.15,2013-06-05 17:40:00,
2013-06-05 12:45:00,73.7,68.2,29.86,NW,307,1.0,3.0,83,0.00,,,0.12,Wunderground v.1.15,2013-06-05 17:45:00,
2013-06-05 12:50:00,74.4,68.9,29.86,NNE,17,1.0,3.0,83,0.00,,,0.12,Wunderground v.1.15,2013-06-05 17:50:00,
2013-06-05 12:55:00,75.4,69.2,29.84,ESE,104,2.0,4.0,81,0.00,,,0.12,Wunderground v.1.15,2013-06-05 17:55:00,
2013-06-05 13:00:00,75.9,70.0,29.85,ESE,110,0.0,4.0,82,0.00,,,0.12,Wunderground v.1.15,2013-06-05 18:00:00,
2013-06-05 13:05:00,77.1,69.3,29.85,West,262,1.0,4.0,77,0.00,,,0.12,Wunderground v.1.15,2013-06-05 18:05:00,
2013-06-05 13:10:00,78.2,70.0,29.85,SE,146,1.0,1.0,76,0.00,,,0.12,Wunderground v.1.15,2013-06-05 18:10:00,
2013-06-05 13:15:00,78.6,69.6,29.84,SW,236,0.0,3.0,74,0.00,,,0.12,Wunderground v.1.15,2013-06-05 18:15:00,
2013-06-05 13:20:00,79.2,70.6,29.85,NW,310,1.0,1.0,75,0.00,,,0.12,Wunderground v.1.15,2013-06-05 18:20:00,
2013-06-05 13:25:00,79.4,69.2,29.85,West,261,1.0,5.0,71,0.00,,,0.12,Wunderground v.1.15,2013-06-05 18:25:00,
2013-06-05 13:30:00,79.2,67.7,29.84,NW,319,5.0,5.0,68,0.00,,,0.12,Wunderground v.1.15,2013-06-05 18:30:00,
2013-06-05 13:35:00,79.3,67.8,29.84,West,270,6.0,10.0,68,0.00,,,0.12,Wunderground v.1.15,2013-06-05 18:35:00,
2013-06-05 13:40:00,79.3,68.2,29.84,WNW,301,3.0,10.0,69,0.00,,,0.12,Wunderground v.1.15,2013-06-05 18:40:00,
2013-06-05 13:45:00,79.3,67.8,29.84,NW,323,2.0,7.0,68,0.00,,,0.12,Wunderground v.1.15,2013-06-05 18:45:00,
2013-06-05 13:50:00,78.8,67.3,29.84,NW,307,4.0,7.0,68,0.00,,,0.12,Wunderground v.1.15,2013-06-05 18:50:00,
2013-06-05 13:55:00,79.0,67.5,29.83,NW,319,4.0,6.0,68,0.00,,,0.12,Wunderground v.1.15,2013-06-05 18:55:00,
2013-06-05 14:00:00,79.1,67.6,29.83,WSW,256,4.0,4.0,68,0.00,,,0.12,Wunderground v.1.15,2013-06-05 19:00:00,
2013-06-05 14:05:00,79.4,66.2,29.83,WNW,293,5.0,9.0,64,0.00,,,0.12,Wunderground v.1.15,2013-06-05 19:05:00,
2013-06-05 14:10:00,79.2,67.3,29.83,NW,304,2.0,5.0,67,0.00,,,0.12,Wunderground v.1.15,2013-06-05 19:10:00,
2013-06-05 14:15:00,79.0,66.7,29.83,WSW,256,3.0,6.0,66,0.00,,,0.12,Wunderground v.1.15,2013-06-05 19:15:00,
2013-06-05 14:20:00,78.8,66.5,29.83,WNW,288,3.0,3.0,66,0.00,,,0.12,Wunderground v.1.15,2013-06-05 19:20:00,
2013-06-05 14:25:00,79.3,68.7,29.82,West,264,2.0,8.0,70,0.00,,,0.12,Wunderground v.1.15,2013-06-05 19:25:00,
2013-06-05 14:30:00,79.7,69.0,29.82,WNW,294,4.0,4.0,70,0.00,,,0.12,Wunderground v.1.15,2013-06-05 19:30:00,
2013-06-05 14:35:00,79.8,67.4,29.82,NW,308,6.0,10.0,66,0.00,,,0.12,Wunderground v.1.15,2013-06-05 19:35:00,
2013-06-05 14:40:00,79.4,66.6,29.81,WNW,302,2.0,4.0,65,0.00,,,0.12,Wunderground v.1.15,2013-06-05 19:40:00,
2013-06-05 14:45:00,79.6,68.1,29.81,West,278,3.0,8.0,68,0.00,,,0.12,Wunderground v.1.15,2013-06-05 19:45:00,
2013-06-05 14:50:00,79.6,66.8,29.81,NW,304,2.0,3.0,65,0.00,,,0.12,Wunderground v.1.15,2013-06-05 19:50:00,
2013-06-05 14:55:00,79.3,66.5,29.81,WNW,294,4.0,7.0,65,0.00,,,0.12,Wunderground v.1.15,2013-06-05 19:55:00,
2013-06-05 15:00:00,79.6,66.8,29.81,WNW,290,5.0,5.0,65,0.00,,,0.12,Wunderground v.1.15,2013-06-05 20:00:00,
2013-06-05 15:05:00,80.1,66.4,29.81,West,276,7.0,9.0,63,0.00,,,0.12,Wunderground v.1.15,2013-06-05 20:05:00,
2013-06-05 15:10:00,80.1,66.8,29.80,WSW,252,5.0,5.0,64,0.00,,,0.12,Wunderground v.1.15,2013-06-05 20:10:00,
2013-06-05 15:15:00,80.4,67.1,29.81,West,266,4.0,5.0,64,0.00,,,0.12,Wunderground v.1.15,2013-06-05 20:15:00,
2013-06-05 15:20:00,80.9,66.7,29.81,WNW,300,3.0,7.0,62,0.00,,,0.12,Wunderground v.1.15,2013-06-05 20:20:00,
2013-06-05 15:25:00,81.3,67.5,29.81,WNW,298,7.0,7.0,63,0.00,,,0.12,Wunderground v.1.15,2013-06-05 20:25:00,
2013-06-05 15:30:00,81.2,66.0,29.81,NW,310,1.0,7.0,60,0.00,,,0.12,Wunderground v.1.15,2013-06-05 20:30:00,
2013-06-05 15:35:00,81.3,67.5,29.81,West,276,7.0,11.0,63,0.00,,,0.12,Wunderground v.1.15,2013-06-05 20:35:00,
2013-06-05 15:40:00,81.2,66.0,29.81,West,263,5.0,11.0,60,0.00,,,0.12,Wunderground v.1.15,2013-06-05 20:40:00,
2013-06-05 15:45:00,81.3,66.6,29.81,WNW,292,4.0,9.0,61,0.00,,,0.12,Wunderground v.1.15,2013-06-05 20:45:00,
2013-06-05 15:50:00,81.1,66.4,29.81,West,262,8.0,9.0,61,0.00,,,0.12,Wunderground v.1.15,2013-06-05 20:50:00,
2013-06-05 15:55:00,80.5,66.7,29.81,NW,313,7.0,10.0,63,0.00,,,0.12,Wunderground v.1.15,2013-06-05 20:55:00,
2013-06-05 16:00:00,80.6,66.8,29.81,WNW,289,5.0,10.0,63,0.00,,,0.12,Wunderground v.1.15,2013-06-05 21:00:00,
2013-06-05 16:05:00,80.5,66.7,29.82,WSW,257,5.0,8.0,63,0.00,,,0.12,Wunderground v.1.15,2013-06-05 21:05:00,
2013-06-05 16:10:00,80.1,66.4,29.82,NW,314,4.0,8.0,63,0.00,,,0.12,Wunderground v.1.15,2013-06-05 21:10:00,
2013-06-05 16:15:00,79.4,67.0,29.82,WSW,252,8.0,8.0,66,0.00,,,0.12,Wunderground v.1.15,2013-06-05 21:15:00,
2013-06-05 16:20:00,79.3,65.6,29.82,WNW,287,4.0,4.0,63,0.00,,,0.12,Wunderground v.1.15,2013-06-05 21:20:00,
2013-06-05 16:25:00,79.5,66.3,29.82,NW,304,4.0,9.0,64,0.00,,,0.12,Wunderground v.1.15,2013-06-05 21:25:00,
2013-06-05 16:30:00,79.6,66.8,29.81,NW,307,6.0,6.0,65,0.00,,,0.12,Wunderground v.1.15,2013-06-05 21:30:00,
2013-06-05 16:35:00,79.8,66.1,29.82,West,263,6.0,10.0,63,0.00,,,0.12,Wunderground v.1.15,2013-06-05 21:35:00,
2013-06-05 16:40:00,80.0,66.7,29.82,West,278,4.0,6.0,64,0.00,,,0.12,Wunderground v.1.15,2013-06-05 21:40:00,
2013-06-05 16:45:00,79.9,65.2,29.82,WNW,302,8.0,13.0,61,0.00,,,0.12,Wunderground v.1.15,2013-06-05 21:45:00,
2013-06-05 16:50:00,79.1,65.4,29.82,WNW,285,3.0,6.0,63,0.00,,,0.12,Wunderground v.1.15,2013-06-05 21:50:00,
2013-06-05 16:55:00,79.4,66.6,29.82,West,278,5.0,7.0,65,0.00,,,0.12,Wunderground v.1.15,2013-06-05 21:55:00,
2013-06-05 17:00:00,79.3,67.0,29.82,NW,319,7.0,7.0,66,0.00,,,0.12,Wunderground v.1.15,2013-06-05 22:00:00,
2013-06-05 17:05:00,79.3,66.1,29.83,West,281,4.0,8.0,64,0.00,,,0.12,Wunderground v.1.15,2013-06-05 22:05:00,
2013-06-05 17:10:00,79.2,67.3,29.82,West,269,4.0,4.0,67,0.00,,,0.12,Wunderground v.1.15,2013-06-05 22:10:00,
2013-06-05 17:15:00,79.5,66.3,29.82,NW,316,4.0,6.0,64,0.00,,,0.12,Wunderground v.1.15,2013-06-05 22:15:00,
2013-06-05 17:20:00,79.7,66.9,29.82,West,265,7.0,8.0,65,0.00,,,0.12,Wunderground v.1.15,2013-06-05 22:20:00,
2013-06-05 17:25:00,79.3,66.1,29.83,WNW,295,5.0,10.0,64,0.00,,,0.12,Wunderground v.1.15,2013-06-05 22:25:00,
2013-06-05 17:30:00,79.0,66.7,29.83,West,273,4.0,5.0,66,0.00,,,0.12,Wunderground v.1.15,2013-06-05 22:30:00,
2013-06-05 17:35:00,79.7,66.9,29.83,WSW,253,9.0,9.0,65,0.00,,,0.12,Wunderground v.1.15,2013-06-05 22:35:00,
2013-06-05 17:40:00,79.4,67.0,29.83,NW,305,2.0,4.0,66,0.00,,,0.12,Wunderground v.1.15,2013-06-05 22:40:00,
2013-06-05 17:45:00,79.0,67.1,29.83,WSW,250,9.0,11.0,67,0.00,,,0.12,Wunderground v.1.15,2013-06-05 22:45:00,
2013-06-05 17:50:00,78.6,66.7,29.83,WNW,301,4.0,6.0,67,0.00,,,0.12,Wunderground v.1.15,2013-06-05 22:50:00,
2013-06-05 17:55:00,79.2,67.3,29.83,West,261,6.0,11.0,67,0.00,,,0.12,Wunderground v.1.15,2013-06-05 22:55:00,
2013-06-05 18:01:00,79.3,67.8,29.83,NW,314,5.0,5.0,68,0.00,,,0.12,Wunderground v.1.15,2013-06-05 23:01:00,
2013-06-05 18:06:00,78.6,67.2,29.83,West,280,7.0,7.0,68,0.00,,,0.12,Wunderground v.1.15,2013-06-05 23:06:00,
2013-06-05 18:11:00,78.0,66.6,29.83,WNW,298,3.0,6.0,68,0.00,,,0.12,Wunderground v.1.15,2013-06-05 23:11:00,
2013-06-05 18:16:00,77.7,67.5,29.83,WNW,298,3.0,8.0,71,0.00,,,0.12,Wunderground v.1.15,2013-06-05 23:16:00,
2013-06-05 18:21:00,77.5,67.4,29.83,NE,37,0.0,3.0,71,0.00,,,0.12,Wunderground v.1.15,2013-06-05 23:21:00,
2013-06-05 18:26:00,77.1,67.4,29.83,WNW,287,3.0,4.0,72,0.00,,,0.12,Wunderground v.1.15,2013-06-05 23:26:00,
2013-06-05 18:31:00,76.8,67.5,29.83,NW,304,1.0,1.0,73,0.00,,,0.12,Wunderground v.1.15,2013-06-05 23:31:00,
2013-06-05 18:36:00,76.6,67.3,29.83,West,275,7.0,7.0,73,0.00,,,0.12,Wunderground v.1.15,2013-06-05 23:36:00,
2013-06-05 18:41:00,76.5,67.2,29.83,NW,314,3.0,4.0,73,0.00,,,0.12,Wunderground v.1.15,2013-06-05 23:41:00,
2013-06-05 18:46:00,76.6,66.9,29.83,West,262,4.0,6.0,72,0.00,,,0.12,Wunderground v.1.15,2013-06-05 23:46:00,
2013-06-05 18:51:00,76.4,67.1,29.83,WNW,297,4.0,5.0,73,0.00,,,0.12,Wunderground v.1.15,2013-06-05 23:51:00,
2013-06-05 18:56:00,76.6,66.9,29.83,NW,313,3.0,5.0,72,0.00,,,0.12,Wunderground v.1.15,2013-06-05 23:56:00,
2013-06-05 19:01:00,76.6,66.9,29.83,WNW,295,1.0,3.0,72,0.00,,,0.12,Wunderground v.1.15,2013-06-06 00:01:00,
2013-06-05 19:06:00,76.3,67.0,29.83,NW,304,0.0,3.0,73,0.00,,,0.12,Wunderground v.1.15,2013-06-06 00:06:00,
2013-06-05 19:11:00,76.0,67.5,29.83,North,9,3.0,7.0,75,0.00,,,0.12,Wunderground v.1.15,2013-06-06 00:11:00,
2013-06-05 19:16:00,75.7,67.2,29.83,NW,319,3.0,7.0,75,0.00,,,0.12,Wunderground v.1.15,2013-06-06 00:16:00,
2013-06-05 19:21:00,75.6,67.1,29.83,NW,322,2.0,2.0,75,0.00,,,0.12,Wunderground v.1.15,2013-06-06 00:21:00,
2013-06-05 19:26:00,75.7,67.6,29.83,NW,304,1.0,3.0,76,0.00,,,0.12,Wunderground v.1.15,2013-06-06 00:26:00,
2013-06-05 21:08:00,69.9,64.2,29.86,NNE,25,0.0,0.0,82,0.00,,,0.12,Wunderground v.1.15,2013-06-06 02:08:00,